sensor_id;sensor_type;location;lat;lon;timestamp;pressure;altitude;pressure_sealevel;temperature;humidity
63903;BME280;50072;50.678;13.938;2023-05-02T00:01:44;99348.72;;;13.10;67.65
63903;BME280;50072;50.678;13.938;2023-05-02T00:04:10;99356.34;;;13.21;67.61
63903;BME280;50072;50.678;13.938;2023-05-02T00:06:44;99354.84;;;13.14;67.96
63903;BME280;50072;50.678;13.938;2023-05-02T00:09:13;99356.47;;;13.18;68.13
63903;BME280;50072;50.678;13.938;2023-05-02T00:11:41;99360.88;;;13.19;68.95
63903;BME280;50072;50.678;13.938;2023-05-02T00:14:07;99362.66;;;13.20;69.21
63903;BME280;50072;50.678;13.938;2023-05-02T00:16:33;99360.75;;;13.22;69.98
63903;BME280;50072;50.678;13.938;2023-05-02T00:18:59;99364.63;;;13.15;71.00
63903;BME280;50072;50.678;13.938;2023-05-02T00:21:39;99358.53;;;13.11;72.20
63903;BME280;50072;50.678;13.938;2023-05-02T00:24:06;99364.13;;;13.05;72.03
63903;BME280;50072;50.678;13.938;2023-05-02T00:26:32;99354.41;;;13.03;72.51
63903;BME280;50072;50.678;13.938;2023-05-02T00:29:02;99356.41;;;12.98;71.43
63903;BME280;50072;50.678;13.938;2023-05-02T00:31:29;99360.31;;;12.89;71.96
63903;BME280;50072;50.678;13.938;2023-05-02T00:34:01;99360.72;;;12.78;73.28
63903;BME280;50072;50.678;13.938;2023-05-02T00:36:32;99358.09;;;12.76;74.84
63903;BME280;50072;50.678;13.938;2023-05-02T00:39:12;99355.50;;;12.75;75.32
63903;BME280;50072;50.678;13.938;2023-05-02T00:41:45;99355.94;;;12.64;75.74
63903;BME280;50072;50.678;13.938;2023-05-02T00:44:17;99353.56;;;12.55;75.70
63903;BME280;50072;50.678;13.938;2023-05-02T00:46:46;99369.03;;;12.48;75.88
63903;BME280;50072;50.678;13.938;2023-05-02T00:49:16;99365.59;;;12.45;76.26
63903;BME280;50072;50.678;13.938;2023-05-02T00:51:48;99362.75;;;12.49;75.31
63903;BME280;50072;50.678;13.938;2023-05-02T00:54:16;99370.66;;;12.52;74.97
63903;BME280;50072;50.678;13.938;2023-05-02T00:56:47;99362.56;;;12.54;75.13
63903;BME280;50072;50.678;13.938;2023-05-02T00:59:19;99366.13;;;12.54;75.46
63903;BME280;50072;50.678;13.938;2023-05-02T01:07:34;99374.88;;;12.36;77.71
63903;BME280;50072;50.678;13.938;2023-05-02T01:10:33;99378.38;;;12.38;77.96
63903;BME280;50072;50.678;13.938;2023-05-02T01:13:08;99382.34;;;12.28;78.71
63903;BME280;50072;50.678;13.938;2023-05-02T01:15:39;99390.97;;;12.36;78.78
63903;BME280;50072;50.678;13.938;2023-05-02T01:18:21;99389.22;;;12.35;78.76
63903;BME280;50072;50.678;13.938;2023-05-02T01:20:50;99393.88;;;12.30;79.62
63903;BME280;50072;50.678;13.938;2023-05-02T01:23:52;99389.47;;;12.29;79.98
63903;BME280;50072;50.678;13.938;2023-05-02T01:26:50;99389.28;;;12.33;80.24
63903;BME280;50072;50.678;13.938;2023-05-02T01:29:19;99392.41;;;12.21;79.91
63903;BME280;50072;50.678;13.938;2023-05-02T01:31:52;99384.28;;;12.22;80.41
63903;BME280;50072;50.678;13.938;2023-05-02T01:34:32;99393.28;;;12.21;79.60
63903;BME280;50072;50.678;13.938;2023-05-02T01:37:01;99395.25;;;12.16;79.34
63903;BME280;50072;50.678;13.938;2023-05-02T01:39:31;99393.44;;;12.17;79.34
63903;BME280;50072;50.678;13.938;2023-05-02T01:42:16;99398.66;;;12.21;78.54
63903;BME280;50072;50.678;13.938;2023-05-02T01:44:46;99404.16;;;12.17;79.91
63903;BME280;50072;50.678;13.938;2023-05-02T01:47:17;99403.25;;;12.18;80.96
63903;BME280;50072;50.678;13.938;2023-05-02T01:49:46;99405.75;;;12.22;79.60
63903;BME280;50072;50.678;13.938;2023-05-02T01:52:15;99401.91;;;12.30;79.45
63903;BME280;50072;50.678;13.938;2023-05-02T01:54:42;99403.78;;;12.28;78.27
63903;BME280;50072;50.678;13.938;2023-05-02T01:57:10;99407.28;;;12.30;77.14
63903;BME280;50072;50.678;13.938;2023-05-02T01:59:46;99409.88;;;12.33;77.74
63903;BME280;50072;50.678;13.938;2023-05-02T02:02:16;99407.41;;;12.26;78.30
63903;BME280;50072;50.678;13.938;2023-05-02T02:04:50;99413.00;;;12.20;80.05
63903;BME280;50072;50.678;13.938;2023-05-02T02:07:21;99414.84;;;12.18;80.38
63903;BME280;50072;50.678;13.938;2023-05-02T02:09:48;99418.25;;;12.23;80.76
63903;BME280;50072;50.678;13.938;2023-05-02T02:12:25;99413.69;;;12.25;80.79
63903;BME280;50072;50.678;13.938;2023-05-02T02:15:08;99415.63;;;12.22;82.04
63903;BME280;50072;50.678;13.938;2023-05-02T02:17:47;99421.06;;;12.20;82.75
63903;BME280;50072;50.678;13.938;2023-05-02T02:20:17;99426.47;;;12.19;82.14
63903;BME280;50072;50.678;13.938;2023-05-02T02:22:46;99428.31;;;12.17;81.86
63903;BME280;50072;50.678;13.938;2023-05-02T02:25:16;99426.59;;;12.16;82.30
63903;BME280;50072;50.678;13.938;2023-05-02T02:27:43;99445.09;;;12.23;82.49
63903;BME280;50072;50.678;13.938;2023-05-02T02:30:16;99443.13;;;12.29;80.94
63903;BME280;50072;50.678;13.938;2023-05-02T02:32:44;99431.50;;;12.28;80.41
63903;BME280;50072;50.678;13.938;2023-05-02T02:35:16;99435.06;;;12.29;80.88
63903;BME280;50072;50.678;13.938;2023-05-02T02:38:04;99440.06;;;12.14;80.76
63903;BME280;50072;50.678;13.938;2023-05-02T02:40:54;99442.22;;;12.28;80.82
63903;BME280;50072;50.678;13.938;2023-05-02T02:43:43;99443.19;;;12.25;80.20
63903;BME280;50072;50.678;13.938;2023-05-02T02:46:49;99447.94;;;12.19;81.10
63903;BME280;50072;50.678;13.938;2023-05-02T02:49:47;99452.69;;;12.11;80.89
63903;BME280;50072;50.678;13.938;2023-05-02T02:55:23;99457.69;;;12.21;81.51
63903;BME280;50072;50.678;13.938;2023-05-02T03:01:03;99459.66;;;12.16;81.78
63903;BME280;50072;50.678;13.938;2023-05-02T03:03:38;99465.13;;;12.13;82.37
63903;BME280;50072;50.678;13.938;2023-05-02T03:06:14;99457.81;;;12.17;82.21
63903;BME280;50072;50.678;13.938;2023-05-02T03:08:46;99462.78;;;12.02;84.08
63903;BME280;50072;50.678;13.938;2023-05-02T03:11:16;99456.78;;;11.96;84.19
63903;BME280;50072;50.678;13.938;2023-05-02T03:13:47;99464.84;;;11.96;84.68
63903;BME280;50072;50.678;13.938;2023-05-02T03:16:32;99463.88;;;11.97;85.00
63903;BME280;50072;50.678;13.938;2023-05-02T03:19:03;99471.00;;;11.98;85.01
63903;BME280;50072;50.678;13.938;2023-05-02T03:21:32;99468.31;;;11.98;85.72
63903;BME280;50072;50.678;13.938;2023-05-02T03:24:00;99474.44;;;12.01;85.70
63903;BME280;50072;50.678;13.938;2023-05-02T03:26:26;99476.16;;;12.04;85.06
63903;BME280;50072;50.678;13.938;2023-05-02T03:28:54;99482.50;;;12.01;85.38
63903;BME280;50072;50.678;13.938;2023-05-02T03:31:21;99486.03;;;12.03;85.63
63903;BME280;50072;50.678;13.938;2023-05-02T03:33:48;99486.78;;;12.07;85.70
63903;BME280;50072;50.678;13.938;2023-05-02T03:36:16;99494.88;;;12.05;86.34
63903;BME280;50072;50.678;13.938;2023-05-02T03:38:46;99495.03;;;12.01;86.91
63903;BME280;50072;50.678;13.938;2023-05-02T03:41:16;99488.16;;;11.92;87.37
63903;BME280;50072;50.678;13.938;2023-05-02T03:43:46;99496.34;;;11.87;87.31
63903;BME280;50072;50.678;13.938;2023-05-02T03:46:16;99498.88;;;11.92;87.70
63903;BME280;50072;50.678;13.938;2023-05-02T03:48:42;99499.84;;;11.89;87.34
63903;BME280;50072;50.678;13.938;2023-05-02T03:51:10;99500.63;;;11.93;88.04
63903;BME280;50072;50.678;13.938;2023-05-02T03:53:38;99495.41;;;11.88;87.45
63903;BME280;50072;50.678;13.938;2023-05-02T03:56:04;99491.19;;;11.81;88.11
63903;BME280;50072;50.678;13.938;2023-05-02T03:58:33;99499.09;;;11.86;88.12
63903;BME280;50072;50.678;13.938;2023-05-02T04:01:01;99498.19;;;11.85;88.30
63903;BME280;50072;50.678;13.938;2023-05-02T04:03:26;99502.75;;;11.83;88.28
63903;BME280;50072;50.678;13.938;2023-05-02T04:05:53;99501.81;;;11.84;88.18
63903;BME280;50072;50.678;13.938;2023-05-02T04:08:19;99503.38;;;11.91;87.44
63903;BME280;50072;50.678;13.938;2023-05-02T04:10:45;99509.75;;;11.87;88.03
63903;BME280;50072;50.678;13.938;2023-05-02T04:13:11;99517.13;;;11.81;88.75
63903;BME280;50072;50.678;13.938;2023-05-02T04:15:37;99513.53;;;11.82;88.77
63903;BME280;50072;50.678;13.938;2023-05-02T04:18:03;99519.84;;;11.79;88.57
63903;BME280;50072;50.678;13.938;2023-05-02T04:20:29;99530.47;;;11.82;88.53
63903;BME280;50072;50.678;13.938;2023-05-02T04:22:55;99520.44;;;11.89;89.44
63903;BME280;50072;50.678;13.938;2023-05-02T04:25:21;99530.13;;;11.95;89.78
63903;BME280;50072;50.678;13.938;2023-05-02T04:27:46;99543.78;;;11.85;89.93
63903;BME280;50072;50.678;13.938;2023-05-02T04:30:12;99538.28;;;11.90;89.93
63903;BME280;50072;50.678;13.938;2023-05-02T04:32:38;99539.16;;;11.90;89.91
63903;BME280;50072;50.678;13.938;2023-05-02T04:35:04;99537.16;;;11.99;90.17
63903;BME280;50072;50.678;13.938;2023-05-02T04:37:30;99543.44;;;11.98;89.04
63903;BME280;50072;50.678;13.938;2023-05-02T04:39:56;99545.53;;;11.86;89.26
63903;BME280;50072;50.678;13.938;2023-05-02T04:42:22;99558.13;;;11.84;90.30
63903;BME280;50072;50.678;13.938;2023-05-02T04:44:48;99557.19;;;11.85;90.39
63903;BME280;50072;50.678;13.938;2023-05-02T04:47:14;99556.88;;;11.96;89.95
63903;BME280;50072;50.678;13.938;2023-05-02T04:49:41;99557.56;;;12.03;89.53
63903;BME280;50072;50.678;13.938;2023-05-02T04:52:08;99565.63;;;12.03;89.30
63903;BME280;50072;50.678;13.938;2023-05-02T04:54:35;99571.75;;;12.06;88.59
63903;BME280;50072;50.678;13.938;2023-05-02T04:57:08;99566.78;;;12.21;88.00
63903;BME280;50072;50.678;13.938;2023-05-02T04:59:36;99571.88;;;12.30;87.66
63903;BME280;50072;50.678;13.938;2023-05-02T05:02:01;99575.41;;;12.31;86.53
63903;BME280;50072;50.678;13.938;2023-05-02T05:04:29;99571.72;;;12.35;86.24
63903;BME280;50072;50.678;13.938;2023-05-02T05:06:56;99582.34;;;12.38;85.74
63903;BME280;50072;50.678;13.938;2023-05-02T05:09:22;99582.97;;;12.46;86.87
63903;BME280;50072;50.678;13.938;2023-05-02T05:11:48;99586.09;;;12.59;86.28
63903;BME280;50072;50.678;13.938;2023-05-02T05:14:14;99589.13;;;12.75;85.55
63903;BME280;50072;50.678;13.938;2023-05-02T05:16:40;99590.88;;;12.76;84.54
63903;BME280;50072;50.678;13.938;2023-05-02T05:19:07;99586.19;;;12.81;83.57
63903;BME280;50072;50.678;13.938;2023-05-02T05:21:33;99591.19;;;12.92;83.80
63903;BME280;50072;50.678;13.938;2023-05-02T05:23:59;99595.72;;;13.15;83.11
63903;BME280;50072;50.678;13.938;2023-05-02T05:26:26;99595.72;;;13.15;82.79
63903;BME280;50072;50.678;13.938;2023-05-02T05:28:52;99598.16;;;13.23;81.40
63903;BME280;50072;50.678;13.938;2023-05-02T05:31:18;99609.44;;;13.33;80.92
63903;BME280;50072;50.678;13.938;2023-05-02T05:33:44;99610.03;;;13.41;79.53
63903;BME280;50072;50.678;13.938;2023-05-02T05:36:12;99614.03;;;13.54;76.74
63903;BME280;50072;50.678;13.938;2023-05-02T05:38:40;99611.69;;;13.69;75.29
63903;BME280;50072;50.678;13.938;2023-05-02T05:41:06;99621.19;;;13.77;73.07
63903;BME280;50072;50.678;13.938;2023-05-02T05:43:36;99621.66;;;13.89;70.49
63903;BME280;50072;50.678;13.938;2023-05-02T05:46:02;99626.50;;;14.03;69.48
63903;BME280;50072;50.678;13.938;2023-05-02T05:48:32;99622.69;;;14.08;68.98
63903;BME280;50072;50.678;13.938;2023-05-02T05:51:04;99631.50;;;14.12;68.24
63903;BME280;50072;50.678;13.938;2023-05-02T05:53:31;99635.88;;;14.14;67.15
63903;BME280;50072;50.678;13.938;2023-05-02T05:55:57;99633.69;;;14.24;67.08
63903;BME280;50072;50.678;13.938;2023-05-02T05:58:25;99641.28;;;14.37;65.25
63903;BME280;50072;50.678;13.938;2023-05-02T06:00:52;99643.38;;;14.50;63.21
63903;BME280;50072;50.678;13.938;2023-05-02T06:03:18;99647.22;;;14.67;62.13
63903;BME280;50072;50.678;13.938;2023-05-02T06:05:44;99645.16;;;14.74;60.84
63903;BME280;50072;50.678;13.938;2023-05-02T06:08:10;99650.66;;;14.71;60.72
63903;BME280;50072;50.678;13.938;2023-05-02T06:10:37;99652.91;;;14.81;59.99
63903;BME280;50072;50.678;13.938;2023-05-02T06:13:03;99653.88;;;15.01;59.78
63903;BME280;50072;50.678;13.938;2023-05-02T06:15:32;99655.28;;;15.10;61.08
63903;BME280;50072;50.678;13.938;2023-05-02T06:17:59;99668.88;;;15.27;61.73
63903;BME280;50072;50.678;13.938;2023-05-02T06:20:25;99668.72;;;15.51;61.20
63903;BME280;50072;50.678;13.938;2023-05-02T06:22:52;99658.84;;;15.70;59.92
63903;BME280;50072;50.678;13.938;2023-05-02T06:25:27;99664.06;;;15.94;58.17
63903;BME280;50072;50.678;13.938;2023-05-02T06:27:54;99663.56;;;16.05;57.45
63903;BME280;50072;50.678;13.938;2023-05-02T06:30:22;99670.66;;;16.08;56.45
63903;BME280;50072;50.678;13.938;2023-05-02T06:32:56;99677.28;;;16.19;56.49
63903;BME280;50072;50.678;13.938;2023-05-02T06:35:22;99679.44;;;16.30;55.06
63903;BME280;50072;50.678;13.938;2023-05-02T06:37:48;99684.75;;;16.51;55.16
63903;BME280;50072;50.678;13.938;2023-05-02T06:40:15;99678.03;;;16.60;54.93
63903;BME280;50072;50.678;13.938;2023-05-02T06:42:46;99682.16;;;16.67;52.63
63903;BME280;50072;50.678;13.938;2023-05-02T06:45:16;99691.28;;;16.64;53.48
63903;BME280;50072;50.678;13.938;2023-05-02T06:47:47;99689.75;;;16.78;52.92
63903;BME280;50072;50.678;13.938;2023-05-02T06:50:16;99689.91;;;16.74;51.74
63903;BME280;50072;50.678;13.938;2023-05-02T06:52:46;99681.31;;;16.84;52.78
63903;BME280;50072;50.678;13.938;2023-05-02T06:55:16;99689.09;;;16.72;52.32
63903;BME280;50072;50.678;13.938;2023-05-02T06:57:47;99691.94;;;16.69;52.77
63903;BME280;50072;50.678;13.938;2023-05-02T07:00:17;99693.47;;;16.75;48.96
63903;BME280;50072;50.678;13.938;2023-05-02T07:02:48;99700.06;;;16.69;49.34
63903;BME280;50072;50.678;13.938;2023-05-02T07:05:14;99689.25;;;16.69;52.33
63903;BME280;50072;50.678;13.938;2023-05-02T07:07:46;99696.50;;;16.69;51.80
63903;BME280;50072;50.678;13.938;2023-05-02T07:10:16;99695.31;;;16.74;50.67
63903;BME280;50072;50.678;13.938;2023-05-02T07:12:46;99705.06;;;16.77;50.37
63903;BME280;50072;50.678;13.938;2023-05-02T07:15:15;99706.94;;;16.94;50.94
63903;BME280;50072;50.678;13.938;2023-05-02T07:17:46;99721.69;;;16.87;50.80
63903;BME280;50072;50.678;13.938;2023-05-02T07:20:13;99712.84;;;17.02;50.20
63903;BME280;50072;50.678;13.938;2023-05-02T07:22:45;99715.22;;;17.08;48.58
63903;BME280;50072;50.678;13.938;2023-05-02T07:25:16;99722.81;;;17.19;49.66
63903;BME280;50072;50.678;13.938;2023-05-02T07:27:46;99732.28;;;17.28;48.09
63903;BME280;50072;50.678;13.938;2023-05-02T07:30:12;99732.91;;;17.51;48.52
63903;BME280;50072;50.678;13.938;2023-05-02T07:32:40;99725.94;;;17.63;48.40
63903;BME280;50072;50.678;13.938;2023-05-02T07:35:08;99729.50;;;17.81;46.50
63903;BME280;50072;50.678;13.938;2023-05-02T07:37:37;99737.38;;;17.85;45.43
63903;BME280;50072;50.678;13.938;2023-05-02T07:40:03;99740.16;;;17.84;46.15
63903;BME280;50072;50.678;13.938;2023-05-02T07:42:29;99744.00;;;17.97;49.50
63903;BME280;50072;50.678;13.938;2023-05-02T07:44:59;99753.84;;;17.98;46.17
63903;BME280;50072;50.678;13.938;2023-05-02T07:47:26;99756.09;;;18.07;46.47
63903;BME280;50072;50.678;13.938;2023-05-02T07:49:53;99761.81;;;18.35;46.74
63903;BME280;50072;50.678;13.938;2023-05-02T07:52:23;99763.19;;;18.26;44.20
63903;BME280;50072;50.678;13.938;2023-05-02T07:54:49;99763.03;;;18.29;45.45
63903;BME280;50072;50.678;13.938;2023-05-02T07:57:17;99771.25;;;18.43;44.50
63903;BME280;50072;50.678;13.938;2023-05-02T07:59:48;99761.34;;;18.42;44.92
63903;BME280;50072;50.678;13.938;2023-05-02T08:02:16;99770.22;;;18.46;44.66
63903;BME280;50072;50.678;13.938;2023-05-02T08:04:45;99779.28;;;18.61;46.22
63903;BME280;50072;50.678;13.938;2023-05-02T08:07:11;99779.56;;;18.72;44.90
63903;BME280;50072;50.678;13.938;2023-05-02T08:09:37;99785.25;;;18.84;46.00
63903;BME280;50072;50.678;13.938;2023-05-02T08:12:03;99794.38;;;18.83;45.11
63903;BME280;50072;50.678;13.938;2023-05-02T08:14:29;99795.50;;;18.78;43.95
63903;BME280;50072;50.678;13.938;2023-05-02T08:16:57;99792.41;;;18.85;43.96
63903;BME280;50072;50.678;13.938;2023-05-02T08:19:23;99803.28;;;18.85;44.33
63903;BME280;50072;50.678;13.938;2023-05-02T08:21:52;99820.59;;;18.66;43.19
63903;BME280;50072;50.678;13.938;2023-05-02T08:24:18;99820.38;;;18.37;43.99
63903;BME280;50072;50.678;13.938;2023-05-02T08:26:44;99816.88;;;18.51;43.57
63903;BME280;50072;50.678;13.938;2023-05-02T08:29:10;99833.19;;;18.67;46.78
63903;BME280;50072;50.678;13.938;2023-05-02T08:31:37;99822.38;;;18.99;43.01
63903;BME280;50072;50.678;13.938;2023-05-02T08:34:04;99825.78;;;19.03;42.45
63903;BME280;50072;50.678;13.938;2023-05-02T08:36:30;99839.94;;;19.08;42.11
63903;BME280;50072;50.678;13.938;2023-05-02T08:38:56;99840.56;;;19.13;42.08
63903;BME280;50072;50.678;13.938;2023-05-02T08:41:23;99846.91;;;18.64;42.03
63903;BME280;50072;50.678;13.938;2023-05-02T08:43:49;99848.53;;;18.51;42.63
63903;BME280;50072;50.678;13.938;2023-05-02T08:46:16;99849.97;;;18.24;45.16
63903;BME280;50072;50.678;13.938;2023-05-02T08:48:44;99848.34;;;18.38;44.35
63903;BME280;50072;50.678;13.938;2023-05-02T08:51:14;99846.16;;;18.28;43.41
63903;BME280;50072;50.678;13.938;2023-05-02T08:53:40;99859.13;;;18.22;44.58
63903;BME280;50072;50.678;13.938;2023-05-02T08:56:07;99866.34;;;18.39;44.47
63903;BME280;50072;50.678;13.938;2023-05-02T08:58:38;99865.03;;;18.13;43.39
63903;BME280;50072;50.678;13.938;2023-05-02T09:01:18;99863.50;;;18.58;44.27
63903;BME280;50072;50.678;13.938;2023-05-02T09:03:46;99871.00;;;19.02;42.37
63903;BME280;50072;50.678;13.938;2023-05-02T09:06:20;99877.28;;;19.51;43.33
63903;BME280;50072;50.678;13.938;2023-05-02T09:08:48;99873.00;;;19.93;43.32
63903;BME280;50072;50.678;13.938;2023-05-02T09:11:15;99887.66;;;20.05;42.56
63903;BME280;50072;50.678;13.938;2023-05-02T09:13:51;99888.75;;;20.16;39.62
63903;BME280;50072;50.678;13.938;2023-05-02T09:16:20;99886.31;;;20.12;41.50
63903;BME280;50072;50.678;13.938;2023-05-02T09:21:19;99891.66;;;19.05;40.97
63903;BME280;50072;50.678;13.938;2023-05-02T09:23:47;99897.22;;;19.49;41.97
63903;BME280;50072;50.678;13.938;2023-05-02T09:26:27;99894.88;;;20.20;42.29
63903;BME280;50072;50.678;13.938;2023-05-02T09:29:01;99903.69;;;20.09;41.76
63903;BME280;50072;50.678;13.938;2023-05-02T09:31:30;99910.47;;;20.02;40.64
63903;BME280;50072;50.678;13.938;2023-05-02T09:34:07;99895.31;;;19.52;41.28
63903;BME280;50072;50.678;13.938;2023-05-02T09:36:45;99895.34;;;19.20;41.95
63903;BME280;50072;50.678;13.938;2023-05-02T09:39:13;99899.59;;;20.02;40.70
63903;BME280;50072;50.678;13.938;2023-05-02T09:41:44;99903.75;;;20.24;40.69
63903;BME280;50072;50.678;13.938;2023-05-02T09:44:18;99909.97;;;20.40;39.88
63903;BME280;50072;50.678;13.938;2023-05-02T09:46:48;99918.03;;;20.42;40.01
63903;BME280;50072;50.678;13.938;2023-05-02T09:49:14;99916.56;;;20.65;42.04
63903;BME280;50072;50.678;13.938;2023-05-02T09:51:40;99922.16;;;20.18;40.88
63903;BME280;50072;50.678;13.938;2023-05-02T09:54:08;99917.28;;;19.79;42.67
63903;BME280;50072;50.678;13.938;2023-05-02T09:56:53;99931.03;;;19.28;43.70
63903;BME280;50072;50.678;13.938;2023-05-02T09:59:21;99932.97;;;18.76;44.95
63903;BME280;50072;50.678;13.938;2023-05-02T10:01:57;99929.25;;;18.45;45.98
63903;BME280;50072;50.678;13.938;2023-05-02T10:04:24;99949.03;;;17.76;47.71
63903;BME280;50072;50.678;13.938;2023-05-02T10:06:52;99944.13;;;17.48;47.99
63903;BME280;50072;50.678;13.938;2023-05-02T10:09:21;99956.69;;;16.91;49.85
63903;BME280;50072;50.678;13.938;2023-05-02T10:11:51;99958.38;;;16.94;49.47
63903;BME280;50072;50.678;13.938;2023-05-02T10:14:34;99957.75;;;16.89;49.84
63903;BME280;50072;50.678;13.938;2023-05-02T10:17:05;99947.66;;;17.12;50.06
63903;BME280;50072;50.678;13.938;2023-05-02T10:19:47;99951.56;;;17.42;50.35
63903;BME280;50072;50.678;13.938;2023-05-02T10:22:24;99955.13;;;17.62;49.29
63903;BME280;50072;50.678;13.938;2023-05-02T10:24:52;99956.88;;;17.07;50.10
63903;BME280;50072;50.678;13.938;2023-05-02T10:27:24;99965.84;;;16.68;50.50
63903;BME280;50072;50.678;13.938;2023-05-02T10:29:52;99962.19;;;16.90;51.00
63903;BME280;50072;50.678;13.938;2023-05-02T10:32:21;99969.72;;;17.40;50.00
63903;BME280;50072;50.678;13.938;2023-05-02T10:34:50;99967.91;;;17.77;48.81
63903;BME280;50072;50.678;13.938;2023-05-02T10:37:18;99975.47;;;18.07;48.40
63903;BME280;50072;50.678;13.938;2023-05-02T10:39:44;99973.22;;;18.51;47.22
63903;BME280;50072;50.678;13.938;2023-05-02T10:42:18;99978.75;;;18.83;46.98
63903;BME280;50072;50.678;13.938;2023-05-02T10:44:44;99972.66;;;18.95;46.27
63903;BME280;50072;50.678;13.938;2023-05-02T10:47:20;99982.09;;;18.88;46.14
63903;BME280;50072;50.678;13.938;2023-05-02T10:49:54;99973.03;;;18.89;46.91
63903;BME280;50072;50.678;13.938;2023-05-02T10:52:29;99980.44;;;18.68;45.69
63903;BME280;50072;50.678;13.938;2023-05-02T10:55:16;99977.50;;;18.55;49.33
63903;BME280;50072;50.678;13.938;2023-05-02T11:00:31;99989.19;;;18.22;45.74
63903;BME280;50072;50.678;13.938;2023-05-02T11:02:59;99992.16;;;17.98;46.35
63903;BME280;50072;50.678;13.938;2023-05-02T11:05:26;99988.22;;;17.86;46.46
63903;BME280;50072;50.678;13.938;2023-05-02T11:10:46;99979.09;;;17.70;48.04
63903;BME280;50072;50.678;13.938;2023-05-02T11:13:13;99989.84;;;17.71;47.42
63903;BME280;50072;50.678;13.938;2023-05-02T11:18:16;99988.56;;;17.61;47.17
63903;BME280;50072;50.678;13.938;2023-05-02T11:20:43;99995.78;;;17.80;46.84
63903;BME280;50072;50.678;13.938;2023-05-02T11:25:50;99996.66;;;18.52;46.24
63903;BME280;50072;50.678;13.938;2023-05-02T11:31:04;99991.66;;;20.23;43.42
63903;BME280;50072;50.678;13.938;2023-05-02T11:33:36;100000.56;;;20.71;42.01
63903;BME280;50072;50.678;13.938;2023-05-02T11:36:02;99995.19;;;21.42;40.07
63903;BME280;50072;50.678;13.938;2023-05-02T11:38:36;99986.72;;;23.20;36.60
63903;BME280;50072;50.678;13.938;2023-05-02T11:41:02;99987.31;;;23.86;33.85
63903;BME280;50072;50.678;13.938;2023-05-02T11:43:29;99983.84;;;26.35;30.51
63903;BME280;50072;50.678;13.938;2023-05-02T11:45:55;99990.06;;;25.49;30.88
63903;BME280;50072;50.678;13.938;2023-05-02T11:48:25;99983.75;;;24.21;34.57
63903;BME280;50072;50.678;13.938;2023-05-02T11:50:57;99987.72;;;24.53;34.97
63903;BME280;50072;50.678;13.938;2023-05-02T11:53:25;99994.13;;;24.64;33.57
63903;BME280;50072;50.678;13.938;2023-05-02T11:56:00;99982.97;;;25.13;32.49
63903;BME280;50072;50.678;13.938;2023-05-02T11:58:30;99990.09;;;24.57;33.96
63903;BME280;50072;50.678;13.938;2023-05-02T12:00:57;99976.72;;;24.77;34.22
63903;BME280;50072;50.678;13.938;2023-05-02T12:03:31;99988.19;;;26.70;31.15
63903;BME280;50072;50.678;13.938;2023-05-02T12:06:09;99991.22;;;26.02;30.84
63903;BME280;50072;50.678;13.938;2023-05-02T12:08:45;99992.19;;;27.49;29.52
63903;BME280;50072;50.678;13.938;2023-05-02T12:11:15;99994.34;;;27.35;29.41
63903;BME280;50072;50.678;13.938;2023-05-02T12:13:48;99990.31;;;29.81;26.46
63903;BME280;50072;50.678;13.938;2023-05-02T12:16:14;99984.38;;;31.28;24.86
63903;BME280;50072;50.678;13.938;2023-05-02T12:18:40;99986.06;;;32.48;23.16
63903;BME280;50072;50.678;13.938;2023-05-02T12:21:08;99986.78;;;32.91;21.86
63903;BME280;50072;50.678;13.938;2023-05-02T12:23:34;99986.59;;;33.97;21.25
63903;BME280;50072;50.678;13.938;2023-05-02T12:26:19;99991.94;;;34.30;22.05
63903;BME280;50072;50.678;13.938;2023-05-02T12:28:50;99987.91;;;33.38;21.98
63903;BME280;50072;50.678;13.938;2023-05-02T12:31:16;99982.56;;;30.12;25.26
63903;BME280;50072;50.678;13.938;2023-05-02T12:33:46;99983.66;;;29.28;26.42
63903;BME280;50072;50.678;13.938;2023-05-02T12:36:19;99979.50;;;29.04;27.82
63903;BME280;50072;50.678;13.938;2023-05-02T12:38:55;99992.63;;;28.73;25.68
63903;BME280;50072;50.678;13.938;2023-05-02T12:41:36;99982.59;;;27.84;26.83
63903;BME280;50072;50.678;13.938;2023-05-02T12:44:03;99977.97;;;27.94;27.35
63903;BME280;50072;50.678;13.938;2023-05-02T12:46:29;99981.69;;;26.92;28.28
63903;BME280;50072;50.678;13.938;2023-05-02T12:49:08;99982.94;;;27.50;28.99
63903;BME280;50072;50.678;13.938;2023-05-02T12:51:38;99985.72;;;25.58;28.88
63903;BME280;50072;50.678;13.938;2023-05-02T12:54:07;99991.75;;;24.60;32.10
63903;BME280;50072;50.678;13.938;2023-05-02T12:56:40;99997.25;;;24.71;32.08
63903;BME280;50072;50.678;13.938;2023-05-02T12:59:06;99986.97;;;25.98;29.93
63903;BME280;50072;50.678;13.938;2023-05-02T13:01:33;99996.38;;;25.84;31.77
63903;BME280;50072;50.678;13.938;2023-05-02T13:04:00;99989.16;;;26.48;29.56
63903;BME280;50072;50.678;13.938;2023-05-02T13:06:26;99994.19;;;26.85;28.00
63903;BME280;50072;50.678;13.938;2023-05-02T13:08:53;99994.41;;;26.51;29.14
63903;BME280;50072;50.678;13.938;2023-05-02T13:11:18;99993.81;;;25.60;31.15
63903;BME280;50072;50.678;13.938;2023-05-02T13:13:46;99986.41;;;24.23;31.14
63903;BME280;50072;50.678;13.938;2023-05-02T13:16:13;99991.97;;;23.60;33.13
63903;BME280;50072;50.678;13.938;2023-05-02T13:18:39;99989.66;;;22.91;34.20
63903;BME280;50072;50.678;13.938;2023-05-02T13:21:04;100001.03;;;22.72;36.32
63903;BME280;50072;50.678;13.938;2023-05-02T13:23:41;99987.81;;;22.79;36.37
63903;BME280;50072;50.678;13.938;2023-05-02T13:26:10;99994.63;;;23.12;36.61
63903;BME280;50072;50.678;13.938;2023-05-02T13:28:35;99998.09;;;23.14;35.53
63903;BME280;50072;50.678;13.938;2023-05-02T13:31:04;99993.16;;;22.93;37.34
63903;BME280;50072;50.678;13.938;2023-05-02T13:33:30;99997.63;;;23.07;36.65